Time;durP1;ratioP1;P1;durP2;ratioP2;P2;SDS_P1;SDS_P2;PMS_P1;PMS_P2;Temp;Humidity;BMP_temperature;BMP_pressure;BME280_temperature;BME280_humidity;BME280_pressure;Samples;Min_cycle;Max_cycle;Signal;HPM_P1;HPM_P2
2021/09/05 00:01:34;;;;;;;5.57;3.57;;;;;;;12.08;100.00;101975.72;5054309;28;20083;-86
2021/09/05 00:04:03;;;;;;;8.27;4.00;;;;;;;12.12;100.00;101973.59;5019653;28;20036;-85
2021/09/05 00:06:29;;;;;;;7.90;4.53;;;;;;;12.08;100.00;101970.38;5018601;28;20441;-84
2021/09/05 00:08:54;;;;;;;8.48;4.22;;;;;;;12.06;100.00;101974.13;5019022;28;20068;-85
2021/09/05 00:11:19;;;;;;;12.47;4.67;;;;;;;11.99;100.00;101968.53;5036259;28;20474;-85
2021/09/05 00:13:45;;;;;;;7.53;3.73;;;;;;;11.96;100.00;101972.34;5019082;28;20048;-85
2021/09/05 00:16:10;;;;;;;12.23;4.77;;;;;;;11.93;100.00;101982.47;5053584;28;20029;-85
2021/09/05 00:18:35;;;;;;;11.67;4.50;;;;;;;11.88;100.00;101974.88;5019681;28;20108;-85
2021/09/05 00:21:01;;;;;;;7.37;4.20;;;;;;;11.79;100.00;101976.50;5019040;28;20095;-86
2021/09/05 00:23:26;;;;;;;9.97;5.07;;;;;;;11.73;100.00;101977.09;5018722;28;20067;-84
2021/09/05 00:25:52;;;;;;;6.47;3.30;;;;;;;11.67;100.00;101972.28;5018953;28;20080;-84
2021/09/05 00:28:17;;;;;;;8.90;4.83;;;;;;;11.64;100.00;101977.94;5018559;28;20044;-85
2021/09/05 00:30:42;;;;;;;10.53;4.80;;;;;;;11.65;100.00;101974.25;5034802;28;20037;-85
2021/09/05 00:33:08;;;;;;;11.43;4.57;;;;;;;11.65;100.00;101971.59;5035755;28;20033;-85
2021/09/05 00:35:34;;;;;;;;;;;;;;;11.69;100.00;101973.00;5019391;28;20040;-85
2021/09/05 00:38:01;;;;;;;7.35;3.75;;;;;;;11.64;100.00;101972.59;5018275;28;19963;-84
2021/09/05 00:40:27;;;;;;;7.70;3.85;;;;;;;11.61;100.00;101972.84;5034550;28;20025;-84
2021/09/05 00:42:52;;;;;;;11.60;5.03;;;;;;;11.61;100.00;101975.50;5018870;28;20033;-85
2021/09/05 00:45:17;;;;;;;12.40;4.40;;;;;;;11.55;100.00;101974.25;5038060;28;20291;-84
2021/09/05 00:47:43;;;;;;;8.73;3.47;;;;;;;11.52;100.00;101962.97;5021255;28;20047;-84
2021/09/05 00:50:12;;;;;;;10.33;3.50;;;;;;;11.53;100.00;101964.69;5038356;28;20049;-84
2021/09/05 00:52:37;;;;;;;9.10;3.90;;;;;;;11.53;100.00;101973.53;5020897;28;20492;-84
2021/09/05 00:55:04;;;;;;;13.88;3.53;;;;;;;11.51;100.00;101972.00;5021252;28;20017;-85
2021/09/05 00:57:29;;;;;;;6.50;3.55;;;;;;;11.47;100.00;101970.56;5021097;28;20079;-83
2021/09/05 00:59:56;;;;;;;8.13;3.80;;;;;;;11.48;100.00;101977.63;5038040;28;20549;-86
2021/09/05 01:02:22;;;;;;;9.77;3.23;;;;;;;11.47;100.00;101981.25;5020743;28;20107;-84
2021/09/05 01:04:47;;;;;;;6.60;3.40;;;;;;;11.43;100.00;101970.03;5020847;28;20037;-84
2021/09/05 01:07:13;;;;;;;6.05;3.13;;;;;;;11.38;100.00;101975.78;5020801;28;20047;-84
2021/09/05 01:09:40;;;;;;;10.20;3.70;;;;;;;11.39;100.00;101977.47;5020995;28;20025;-85
2021/09/05 01:12:07;;;;;;;8.65;3.13;;;;;;;11.39;100.00;101974.78;5025509;28;20051;-84
2021/09/05 01:14:33;;;;;;;7.97;2.80;;;;;;;11.38;100.00;101978.44;5016290;28;20042;-86
2021/09/05 01:17:00;;;;;;;6.68;3.05;;;;;;;11.34;100.00;101985.06;4997499;28;20045;-83
2021/09/05 01:19:51;;;;;;;10.23;3.47;;;;;;;11.34;100.00;101977.03;5013918;28;20033;-85
2021/09/05 01:22:42;;;;;;;11.13;3.13;;;;;;;11.35;100.00;101980.53;5016748;28;20044;-84
2021/09/05 01:25:43;;;;;;;6.40;3.00;;;;;;;11.28;100.00;101971.38;4969578;28;20126;-85
2021/09/05 01:28:41;;;;;;;8.32;2.85;;;;;;;11.30;100.00;101975.59;4985659;28;20103;-84
2021/09/05 01:31:41;;;;;;;8.52;3.85;;;;;;;11.26;100.00;101981.38;5016493;28;20124;-83
2021/09/05 01:34:26;;;;;;;9.52;3.13;;;;;;;11.31;100.00;101987.16;5016033;28;20068;-84
2021/09/05 01:37:10;;;;;;;9.85;2.92;;;;;;;11.27;100.00;101975.06;5015917;28;20545;-84
2021/09/05 01:39:54;;;;;;;7.05;3.00;;;;;;;11.25;100.00;101983.19;5019109;28;20053;-84
2021/09/05 01:42:49;;;;;;;8.20;3.17;;;;;;;11.23;100.00;101990.50;4967938;28;20042;-84
2021/09/05 01:45:40;;;;;;;7.15;3.13;;;;;;;11.15;100.00;101982.34;4989126;28;20417;-84
2021/09/05 01:48:31;;;;;;;5.60;2.33;;;;;;;11.11;100.00;101986.25;5019294;28;20037;-84
2021/09/05 01:51:32;;;;;;;7.45;2.95;;;;;;;11.05;100.00;101984.97;5027008;28;20060;-85
2021/09/05 01:54:16;;;;;;;5.90;2.75;;;;;;;11.03;100.00;101986.94;5024485;28;20040;-87
2021/09/05 01:57:06;;;;;;;5.93;3.17;;;;;;;11.01;100.00;101991.56;5018650;28;20108;-84
2021/09/05 01:59:50;;;;;;;7.20;3.25;;;;;;;11.03;100.00;101988.75;5022034;28;20040;-85
2021/09/05 02:02:39;;;;;;;7.30;3.20;;;;;;;10.99;100.00;101988.19;5019206;28;20037;-85
2021/09/05 02:05:21;;;;;;;7.22;3.30;;;;;;;10.95;100.00;101994.78;5004040;28;20048;-87
2021/09/05 02:08:07;;;;;;;9.65;3.05;;;;;;;10.90;100.00;101986.31;5009159;28;20052;-87
2021/09/05 02:10:51;;;;;;;11.55;4.03;;;;;;;10.90;100.00;101984.47;5018996;28;20130;-87
2021/09/05 02:13:31;;;;;;;8.65;3.15;;;;;;;10.91;100.00;101996.88;5001948;28;20033;-85
2021/09/05 02:16:17;;;;;;;8.00;3.03;;;;;;;10.90;100.00;101995.16;5019214;28;20045;-84
2021/09/05 02:18:54;;;;;;;9.70;2.85;;;;;;;10.93;100.00;101992.25;5000619;28;20140;-84
2021/09/05 02:21:42;;;;;;;7.00;2.72;;;;;;;10.92;100.00;101997.72;5000198;28;20037;-86
2021/09/05 02:24:27;;;;;;;9.73;4.13;;;;;;;10.94;100.00;101998.44;5000071;28;20041;-86
2021/09/05 02:27:21;;;;;;;4.95;3.13;;;;;;;10.90;100.00;102000.50;5017682;28;20517;-84
2021/09/05 02:30:03;;;;;;;8.98;3.35;;;;;;;10.89;100.00;101987.31;4999744;28;20044;-85
2021/09/05 02:32:47;;;;;;;8.10;3.47;;;;;;;10.84;100.00;101995.72;5016474;28;20111;-85
2021/09/05 02:35:32;;;;;;;7.22;2.70;;;;;;;10.77;100.00;101994.56;5015672;28;20096;-85
2021/09/05 02:38:16;;;;;;;4.32;2.22;;;;;;;10.74;100.00;101997.47;5013462;28;20124;-84
2021/09/05 02:41:04;;;;;;;8.50;3.47;;;;;;;10.76;100.00;102007.06;5000043;28;20047;-84
2021/09/05 02:43:56;;;;;;;8.18;2.28;;;;;;;10.77;100.00;102000.75;5011305;28;20040;-84
2021/09/05 02:46:53;;;;;;;6.95;3.38;;;;;;;10.72;100.00;102002.97;5015529;28;20041;-84
2021/09/05 02:49:36;;;;;;;5.03;2.70;;;;;;;10.68;100.00;102003.38;5014001;28;20402;-85
2021/09/05 02:52:26;;;;;;;5.07;2.47;;;;;;;10.63;100.00;102003.78;5021413;28;20022;-84
2021/09/05 02:55:18;;;;;;;7.47;3.15;;;;;;;10.67;100.00;102005.19;5035353;28;20037;-85
2021/09/05 02:58:07;;;;;;;7.07;2.97;;;;;;;10.64;100.00;102005.44;5016845;28;20564;-84
2021/09/05 03:01:01;;;;;;;6.25;2.90;;;;;;;10.69;100.00;101997.03;5015551;28;20033;-84
2021/09/05 03:03:49;;;;;;;6.70;3.47;;;;;;;10.68;100.00;102011.38;5018945;28;20095;-84
2021/09/05 03:06:33;;;;;;;7.35;3.42;;;;;;;10.64;100.00;102000.13;5015219;28;20087;-83
2021/09/05 03:09:22;;;;;;;4.93;2.60;;;;;;;10.63;100.00;102005.56;5009425;28;20048;-84
2021/09/05 03:12:23;;;;;;;5.65;2.50;;;;;;;10.59;100.00;102004.16;5020873;28;20083;-85
2021/09/05 03:15:20;;;;;;;5.25;2.10;;;;;;;10.55;100.00;102006.25;5015797;28;20079;-84
2021/09/05 03:18:04;;;;;;;8.68;2.50;;;;;;;10.50;100.00;102003.13;5017933;28;20743;-84
2021/09/05 03:20:48;;;;;;;3.47;2.20;;;;;;;10.44;100.00;101988.50;5018592;28;20048;-85
2021/09/05 03:23:33;;;;;;;10.27;2.72;;;;;;;10.47;100.00;102001.56;5000621;28;20116;-84
2021/09/05 03:26:17;;;;;;;3.97;2.80;;;;;;;10.46;100.00;102002.53;5016231;28;20504;-86
2021/09/05 03:29:02;;;;;;;3.63;2.40;;;;;;;10.44;100.00;102007.19;5051614;23;20138;-70
2021/09/05 03:31:47;;;;;;;8.95;3.20;;;;;;;10.34;100.00;101990.22;5030653;28;20036;-70
2021/09/05 03:34:34;;;;;;;6.90;2.58;;;;;;;10.28;100.00;101996.06;5030821;28;20116;-70
2021/09/05 03:37:20;;;;;;;5.35;2.85;;;;;;;10.27;100.00;102008.56;5012860;28;20095;-70
2021/09/05 03:39:59;;;;;;;9.63;3.30;;;;;;;10.24;100.00;102006.16;5048368;28;20029;-70
2021/09/05 03:42:45;;;;;;;4.75;2.20;;;;;;;10.17;100.00;102004.13;5033490;28;20045;-70
2021/09/05 03:45:29;;;;;;;4.70;2.58;;;;;;;10.09;100.00;101999.44;5048392;28;20052;-70
2021/09/05 03:48:14;;;;;;;5.80;3.55;;;;;;;10.08;100.00;102001.25;5030665;28;20123;-70
2021/09/05 03:51:02;;;;;;;5.68;2.28;;;;;;;10.06;100.00;102000.53;5017480;28;20033;-70
2021/09/05 03:53:30;;;;;;;9.70;2.90;;;;;;;10.06;100.00;102002.34;5030206;28;20039;-70
2021/09/05 03:55:56;;;;;;;7.40;2.85;;;;;;;10.12;100.00;102001.84;5030192;28;20033;-70
2021/09/05 03:58:24;;;;;;;7.13;2.58;;;;;;;10.11;100.00;101995.69;5030362;28;20644;-70
2021/09/05 04:00:50;;;;;;;7.10;3.63;;;;;;;10.15;100.00;101993.59;5030626;28;20124;-70
2021/09/05 04:03:15;;;;;;;7.35;2.78;;;;;;;10.13;100.00;102000.88;5030227;28;20025;-70
2021/09/05 04:05:41;;;;;;;10.77;2.77;;;;;;;10.09;100.00;101999.44;5030343;28;20120;-70
2021/09/05 04:10:34;;;;;;;6.85;2.85;;;;;;;10.07;100.00;101991.56;5048080;28;20031;-70
2021/09/05 04:12:59;;;;;;;5.18;2.80;;;;;;;10.06;100.00;102000.53;5030214;28;20710;-70
2021/09/05 04:15:25;;;;;;;4.78;2.28;;;;;;;10.03;100.00;101998.13;5047848;28;20119;-70
2021/09/05 04:17:50;;;;;;;6.93;2.90;;;;;;;10.03;100.00;101984.78;5050402;28;20062;-70
2021/09/05 04:20:17;;;;;;;11.80;2.73;;;;;;;10.00;100.00;101990.41;5034549;28;20108;-70
2021/09/05 04:22:42;;;;;;;5.68;2.65;;;;;;;9.97;100.00;101990.63;5034249;28;20568;-70
2021/09/05 04:25:08;;;;;;;5.07;3.00;;;;;;;9.92;100.00;101995.50;5017601;28;20052;-70
2021/09/05 04:27:34;;;;;;;11.05;3.67;;;;;;;9.90;100.00;101995.66;5051642;28;20033;-70
2021/09/05 04:29:59;;;;;;;10.73;2.97;;;;;;;9.91;100.00;101997.34;5051773;28;20060;-70
2021/09/05 04:32:25;;;;;;;5.07;3.20;;;;;;;9.86;100.00;102001.38;5051820;28;20110;-70
2021/09/05 04:34:50;;;;;;;5.77;2.87;;;;;;;9.90;100.00;102000.13;5051191;28;20029;-70
2021/09/05 04:37:17;;;;;;;5.22;2.83;;;;;;;9.93;100.00;102003.38;5032779;28;20271;-70
2021/09/05 04:39:42;;;;;;;6.65;3.15;;;;;;;9.97;100.00;102001.31;5032863;28;20127;-70
2021/09/05 04:42:08;;;;;;;12.83;3.47;;;;;;;10.08;100.00;102003.91;5033128;28;20391;-70
2021/09/05 04:44:33;;;;;;;8.17;3.10;;;;;;;10.11;100.00;102000.16;5050433;28;20063;-70
2021/09/05 04:46:58;;;;;;;9.80;3.17;;;;;;;10.13;100.00;102003.53;5050384;28;20029;-70
2021/09/05 04:49:23;;;;;;;7.80;3.10;;;;;;;10.15;100.00;102005.09;5016195;28;20029;-70
2021/09/05 04:51:49;;;;;;;7.13;2.83;;;;;;;10.26;100.00;102008.69;5050234;28;20084;-70
2021/09/05 04:54:14;;;;;;;10.83;3.50;;;;;;;10.32;100.00;102005.53;5050528;28;20041;-70
2021/09/05 04:56:40;;;;;;;17.30;4.50;;;;;;;10.31;100.00;102018.03;5016081;28;20033;-70
2021/09/05 04:59:05;;;;;;;8.03;3.23;;;;;;;10.30;100.00;102007.47;5032721;28;20529;-70
2021/09/05 05:01:30;;;;;;;7.20;3.17;;;;;;;10.31;100.00;102009.19;5049954;28;20518;-70
2021/09/05 05:03:55;;;;;;;10.00;3.40;;;;;;;10.38;100.00;102010.34;5050134;28;20120;-70
2021/09/05 05:06:21;;;;;;;6.50;2.83;;;;;;;10.38;100.00;102005.03;5031992;28;20088;-70
2021/09/05 05:08:47;;;;;;;13.37;3.77;;;;;;;10.45;100.00;102016.88;5032592;28;20102;-70
2021/09/05 05:11:16;;;;;;;7.13;2.83;;;;;;;10.49;100.00;102012.13;5049895;28;20036;-70
2021/09/05 05:13:44;;;;;;;6.78;2.75;;;;;;;10.53;100.00;102016.19;5032531;28;20060;-70
2021/09/05 05:16:09;;;;;;;6.45;3.28;;;;;;;10.55;100.00;102015.09;5031809;28;20660;-70
2021/09/05 05:18:35;;;;;;;8.03;2.83;;;;;;;10.56;100.00;102023.97;5032548;28;20099;-70
2021/09/05 05:21:00;;;;;;;8.13;3.87;;;;;;;10.62;100.00;102025.25;5049673;28;20480;-70
2021/09/05 05:23:26;;;;;;;9.87;3.10;;;;;;;10.67;100.00;102031.88;5032060;28;20128;-70
2021/09/05 05:25:52;;;;;;;7.47;3.10;;;;;;;10.73;100.00;102030.53;5032038;28;20033;-70
2021/09/05 05:28:18;;;;;;;6.88;3.10;;;;;;;10.76;100.00;102031.09;5049152;28;20345;-70
2021/09/05 05:30:43;;;;;;;9.30;2.95;;;;;;;10.81;100.00;102028.03;5049730;28;20041;-70
2021/09/05 05:33:09;;;;;;;4.57;2.60;;;;;;;10.85;100.00;102029.47;5049554;28;20094;-70
2021/09/05 05:35:34;;;;;;;5.23;2.80;;;;;;;10.91;100.00;102036.97;5048560;28;20037;-70
2021/09/05 05:38:00;;;;;;;6.33;3.10;;;;;;;11.01;100.00;102037.00;5031851;28;20465;-70
2021/09/05 05:40:25;;;;;;;6.87;2.43;;;;;;;11.11;100.00;102029.84;5032226;28;20025;-70
2021/09/05 05:42:54;;;;;;;7.80;3.20;;;;;;;11.21;100.00;102024.53;5049353;28;20098;-70
2021/09/05 05:45:19;;;;;;;8.77;2.83;;;;;;;11.35;100.00;102031.34;5015615;28;20413;-70
2021/09/05 05:47:45;;;;;;;6.20;2.20;;;;;;;11.49;100.00;102043.50;5031453;28;20024;-70
2021/09/05 05:50:10;;;;;;;5.75;3.15;;;;;;;11.63;100.00;102032.41;5047423;28;20052;-70
2021/09/05 05:52:37;;;;;;;7.50;2.97;;;;;;;11.77;100.00;102037.34;5046841;28;20354;-70
2021/09/05 05:55:02;;;;;;;5.50;3.10;;;;;;;12.51;100.00;102038.66;5029526;28;20095;-70
2021/09/05 05:57:28;;;;;;;4.70;2.53;;;;;;;13.99;96.08;102027.09;5046616;28;20037;-70
2021/09/05 05:59:53;;;;;;;4.97;2.57;;;;;;;15.20;90.29;102033.50;5029525;28;20052;-70
2021/09/05 06:02:19;;;;;;;4.87;2.43;;;;;;;16.04;83.68;102037.09;5047353;28;20484;-70
2021/09/05 06:04:44;;;;;;;4.23;2.20;;;;;;;16.94;81.16;102041.59;5030464;28;20513;-70
2021/09/05 06:07:10;;;;;;;3.55;2.05;;;;;;;17.63;77.40;102033.69;5031053;28;20091;-70
2021/09/05 06:09:38;;;;;;;4.45;1.92;;;;;;;18.02;73.86;102041.72;5048797;28;20040;-70
2021/09/05 06:12:04;;;;;;;8.25;2.65;;;;;;;18.35;70.71;102045.03;5031300;28;20033;-70
2021/09/05 06:14:30;;;;;;;4.20;2.28;;;;;;;18.42;69.85;102041.59;5031010;28;20032;-70
2021/09/05 06:16:55;;;;;;;4.77;2.30;;;;;;;18.82;67.22;102048.47;5014653;28;20349;-70
2021/09/05 06:19:21;;;;;;;3.93;2.33;;;;;;;17.75;68.25;102044.91;5031299;28;20445;-70
2021/09/05 06:21:47;;;;;;;5.53;2.28;;;;;;;17.29;68.52;102043.81;5048301;28;20051;-70
2021/09/05 06:24:12;;;;;;;4.65;2.35;;;;;;;17.34;69.81;102040.59;5030818;28;20045;-70
2021/09/05 06:26:38;;;;;;;5.53;2.50;;;;;;;17.39;69.39;102050.84;5014454;28;20044;-70
2021/09/05 06:29:03;;;;;;;5.00;1.90;;;;;;;17.55;69.47;102056.19;5014316;28;20088;-70
2021/09/05 06:31:28;;;;;;;4.20;2.20;;;;;;;17.29;70.73;102059.16;5048471;28;20032;-70
2021/09/05 06:33:54;;;;;;;4.20;2.30;;;;;;;17.68;67.39;102052.91;5048210;28;20029;-70
2021/09/05 06:36:19;;;;;;;4.80;1.97;;;;;;;17.10;67.87;102055.03;5030328;28;20439;-70
2021/09/05 06:38:44;;;;;;;4.63;2.33;;;;;;;17.28;68.17;102052.94;5048665;28;20045;-70
2021/09/05 06:41:10;;;;;;;5.60;2.70;;;;;;;16.48;70.90;102052.06;5029938;28;20524;-70
2021/09/05 06:43:35;;;;;;;6.60;2.30;;;;;;;15.72;72.52;102054.88;5030575;28;20478;-70
2021/09/05 06:46:00;;;;;;;6.17;2.73;;;;;;;15.80;73.36;102056.75;5030016;28;20501;-70
2021/09/05 06:48:26;;;;;;;10.40;2.87;;;;;;;15.91;72.59;102047.50;5048239;28;20361;-70
2021/09/05 06:50:51;;;;;;;8.63;2.70;;;;;;;16.63;70.89;102058.47;5030312;28;20392;-70
2021/09/05 06:53:16;;;;;;;10.27;2.63;;;;;;;17.19;70.10;102056.69;5030486;28;20036;-71
2021/09/05 06:55:42;;;;;;;5.03;2.67;;;;;;;16.67;68.10;102049.88;5030231;28;20025;-70
2021/09/05 06:58:07;;;;;;;5.30;2.47;;;;;;;16.30;71.42;102060.34;5030515;28;20075;-70
2021/09/05 07:00:32;;;;;;;8.83;2.97;;;;;;;16.43;71.40;102064.19;5047818;28;20075;-70
2021/09/05 07:02:58;;;;;;;8.10;2.70;;;;;;;16.02;72.53;102055.28;5047832;28;20037;-70
2021/09/05 07:05:23;;;;;;;5.77;2.77;;;;;;;15.77;73.08;102054.38;5047329;28;20086;-70
2021/09/05 07:07:48;;;;;;;5.60;2.70;;;;;;;15.44;73.85;102054.25;5029993;28;20483;-70
2021/09/05 07:10:14;;;;;;;5.57;3.03;;;;;;;15.44;73.55;102048.03;5030108;28;20201;-70
2021/09/05 07:12:40;;;;;;;18.27;3.63;;;;;;;15.40;75.88;102055.59;5030140;28;20033;-70
2021/09/05 07:15:06;;;;;;;;;;;;;;;15.35;75.36;102063.31;5030239;28;20374;-70
2021/09/05 07:17:31;;;;;;;;;;;;;;;15.53;74.28;102060.53;5030350;28;19943;-70
2021/09/05 07:19:56;;;;;;;6.67;2.67;;;;;;;15.69;73.13;102065.97;5029785;28;20349;-70
2021/09/05 07:22:22;;;;;;;5.60;2.33;;;;;;;15.85;71.33;102065.19;5046455;28;20107;-70
2021/09/05 07:24:47;;;;;;;3.80;2.50;;;;;;;15.81;72.20;102063.81;5029895;28;20505;-70
2021/09/05 07:27:12;;;;;;;7.53;3.17;;;;;;;15.57;71.43;102068.09;5047091;28;20086;-70
2021/09/05 07:29:38;;;;;;;8.47;2.87;;;;;;;15.50;71.74;102060.81;5029965;28;20036;-70
2021/09/05 07:32:04;;;;;;;6.13;2.75;;;;;;;15.61;73.37;102065.91;5029836;28;20044;-69
2021/09/05 07:34:29;;;;;;;6.15;2.70;;;;;;;15.34;72.93;102065.16;5013152;28;20025;-69
2021/09/05 07:36:55;;;;;;;5.27;2.40;;;;;;;15.36;72.68;102071.22;5047305;28;20128;-69
2021/09/05 07:39:20;;;;;;;10.73;4.00;;;;;;;15.00;73.64;102075.91;5047274;28;20120;-69
2021/09/05 07:41:45;;;;;;;3.87;2.23;;;;;;;15.50;73.75;102074.28;5029575;28;20106;-69
2021/09/05 07:44:11;;;;;;;4.77;3.13;;;;;;;15.59;72.64;102076.88;5029448;28;20090;-69
2021/09/05 07:46:36;;;;;;;4.53;2.80;;;;;;;15.98;71.66;102086.25;5029352;28;20132;-69
2021/09/05 07:49:02;;;;;;;9.53;2.80;;;;;;;16.82;70.47;102079.72;5047181;28;20080;-69
2021/09/05 07:51:27;;;;;;;6.87;2.50;;;;;;;17.25;67.95;102088.34;5046136;28;20072;-69
2021/09/05 07:53:54;;;;;;;6.13;2.63;;;;;;;16.68;68.52;102072.28;5048295;22;20040;-69
2021/09/05 07:56:21;;;;;;;3.97;2.42;;;;;;;17.42;68.48;102081.06;5045682;28;20067;-69
2021/09/05 07:58:47;;;;;;;5.47;2.90;;;;;;;18.07;65.69;102073.63;5029829;28;20170;-69
2021/09/05 08:01:13;;;;;;;7.70;2.38;;;;;;;18.73;64.77;102073.91;5046897;28;20124;-69
2021/09/05 08:03:39;;;;;;;5.10;2.70;;;;;;;18.52;62.64;102072.75;5046770;28;20359;-70
2021/09/05 08:06:05;;;;;;;;;;;;;;;19.19;62.29;102071.91;5046958;28;20048;-69
2021/09/05 08:08:30;;;;;;;;;;;;;;;19.45;60.39;102083.28;5013452;28;19920;-69
2021/09/05 08:10:56;;;;;;;6.57;2.60;;;;;;;18.91;60.60;102073.59;5029526;28;20269;-69
2021/09/05 08:13:21;;;;;;;4.03;2.93;;;;;;;18.00;64.00;102086.16;5029227;28;20607;-69
2021/09/05 08:15:46;;;;;;;4.67;3.60;;;;;;;17.56;65.48;102082.19;5029179;28;20160;-69
2021/09/05 08:18:12;;;;;;;7.50;2.60;;;;;;;18.44;63.93;102089.03;5046603;28;20091;-69
2021/09/05 08:20:37;;;;;;;4.03;2.30;;;;;;;18.62;61.47;102082.47;5046906;28;20045;-69
2021/09/05 08:23:03;;;;;;;5.13;2.70;;;;;;;18.62;63.27;102082.47;5029006;28;20047;-69
2021/09/05 08:25:28;;;;;;;4.90;2.83;;;;;;;17.83;64.63;102088.13;5063960;22;20415;-69
2021/09/05 08:27:54;;;;;;;5.28;2.53;;;;;;;18.76;63.00;102090.66;5046329;28;20473;-69
2021/09/05 08:30:19;;;;;;;5.17;2.70;;;;;;;18.82;62.83;102088.22;5047135;28;20033;-69
2021/09/05 08:32:45;;;;;;;4.90;2.47;;;;;;;19.29;62.69;102095.16;5029079;28;20036;-69
2021/09/05 08:35:10;;;;;;;5.97;2.73;;;;;;;20.15;58.70;102088.06;5045161;23;20412;-70
2021/09/05 08:37:36;;;;;;;4.63;2.80;;;;;;;20.65;57.82;102096.28;5064139;22;20140;-86
2021/09/05 08:40:01;;;;;;;5.18;2.50;;;;;;;21.04;57.04;102090.28;5012343;28;20037;-84
2021/09/05 08:42:30;;;;;;;6.55;2.88;;;;;;;21.74;55.29;102102.97;5019298;28;20029;-84
2021/09/05 08:44:55;;;;;;;4.53;2.92;;;;;;;20.39;54.98;102089.56;5035143;28;20114;-85
2021/09/05 08:47:21;;;;;;;6.93;3.17;;;;;;;18.52;59.47;102094.41;5019404;28;20017;-84
2021/09/05 08:49:47;;;;;;;7.30;3.10;;;;;;;19.43;59.48;102101.59;5035466;28;20037;-84
2021/09/05 08:52:13;;;;;;;6.43;2.80;;;;;;;20.62;57.79;102096.66;5019615;28;20037;-86
2021/09/05 08:54:38;;;;;;;5.77;2.70;;;;;;;21.32;54.89;102102.13;5019531;28;20039;-84
2021/09/05 08:57:05;;;;;;;4.37;2.57;;;;;;;21.40;55.13;102104.69;5020350;28;20037;-84
2021/09/05 08:59:30;;;;;;;5.57;2.60;;;;;;;21.70;55.08;102119.69;5033585;28;20037;-85
2021/09/05 09:01:59;;;;;;;5.93;3.43;;;;;;;18.88;58.73;102104.56;5017183;28;20054;-84
2021/09/05 09:04:26;;;;;;;9.93;3.40;;;;;;;20.03;58.36;102103.19;5019374;28;20033;-83
2021/09/05 09:06:51;;;;;;;;;;;;;;;21.01;56.49;102115.13;5022611;28;20075;-87
2021/09/05 09:09:17;;;;;;;4.53;2.50;;;;;;;21.69;55.31;102112.56;5052732;28;19913;-86
2021/09/05 09:11:51;;;;;;;4.57;2.35;;;;;;;21.27;56.24;102110.88;5020507;28;20040;-84
2021/09/05 09:14:18;;;;;;;7.45;2.97;;;;;;;21.27;54.66;102105.44;5021004;28;20562;-84
2021/09/05 09:16:43;;;;;;;4.32;2.50;;;;;;;21.15;56.06;102101.63;5020964;28;20090;-81
2021/09/05 09:19:21;;;;;;;8.50;2.50;;;;;;;22.12;53.47;102101.41;5021475;28;20108;-82
2021/09/05 09:21:46;;;;;;;6.78;2.95;;;;;;;19.79;58.07;102088.13;5021289;28;20091;-83
2021/09/05 09:24:18;;;;;;;5.63;3.03;;;;;;;19.45;58.76;102099.53;5021460;28;20028;-83
2021/09/05 09:27:03;;;;;;;4.90;3.15;;;;;;;19.62;58.66;102101.03;5037754;28;20033;-82
2021/09/05 09:29:28;;;;;;;9.85;5.18;;;;;;;19.08;56.85;102099.47;5036047;23;20041;-70
2021/09/05 09:31:59;;;;;;;8.90;3.38;;;;;;;19.26;58.24;102114.50;5029532;28;20493;-69
2021/09/05 09:34:25;;;;;;;7.95;3.40;;;;;;;20.07;56.93;102107.19;5029318;28;20458;-70
2021/09/05 09:36:59;;;;;;;6.75;3.30;;;;;;;19.18;58.55;102110.84;5028503;28;20055;-69
2021/09/05 09:39:27;;;;;;;5.57;2.95;;;;;;;20.38;56.71;102114.16;5028533;28;20048;-69
2021/09/05 09:41:52;;;;;;;5.72;3.70;;;;;;;21.65;53.78;102113.19;5029622;28;20104;-70
2021/09/05 09:44:18;;;;;;;5.83;3.83;;;;;;;19.64;57.06;102098.94;5028449;28;20049;-70
2021/09/05 09:46:44;;;;;;;10.23;4.00;;;;;;;19.05;59.64;102107.09;5029248;28;20025;-70
2021/09/05 09:49:14;;;;;;;10.60;4.10;;;;;;;19.14;58.41;102100.56;5028636;28;20041;-70
2021/09/05 09:51:41;;;;;;;5.72;3.05;;;;;;;19.89;58.71;102093.22;5028229;28;20394;-69
2021/09/05 09:54:07;;;;;;;7.45;3.53;;;;;;;19.72;59.95;102100.75;5011810;28;20017;-69
2021/09/05 09:56:33;;;;;;;7.68;3.30;;;;;;;20.80;57.97;102090.75;5029119;28;20438;-69
2021/09/05 09:59:02;;;;;;;;;;;;;;;21.19;55.72;102094.75;5028683;28;20069;-70
2021/09/05 10:01:29;;;;;;;6.80;3.47;;;;;;;21.98;53.56;102096.13;5028894;28;19920;-70
2021/09/05 10:03:57;;;;;;;4.68;3.22;;;;;;;21.40;55.70;102097.41;5028087;28;20041;-70
2021/09/05 10:06:24;;;;;;;7.40;3.15;;;;;;;20.85;54.39;102091.81;5027474;28;20501;-70
2021/09/05 10:08:54;;;;;;;5.15;2.90;;;;;;;21.84;53.64;102089.81;5028194;28;20033;-70
2021/09/05 10:11:20;;;;;;;9.70;4.28;;;;;;;19.72;58.20;102087.19;5027871;28;20045;-70
2021/09/05 10:13:47;;;;;;;6.70;4.38;;;;;;;20.59;56.05;102097.06;5029029;28;20083;-70
2021/09/05 10:16:12;;;;;;;6.00;3.97;;;;;;;20.65;54.78;102090.84;5027290;28;20458;-70
2021/09/05 10:18:45;;;;;;;6.53;3.53;;;;;;;19.59;58.72;102085.13;5028999;28;20052;-70
2021/09/05 10:21:13;;;;;;;8.32;3.20;;;;;;;19.66;58.27;102091.47;5027703;28;20059;-70
2021/09/05 10:23:46;;;;;;;7.88;4.00;;;;;;;20.59;58.32;102087.03;5027754;28;20049;-70
2021/09/05 10:26:14;;;;;;;9.50;4.47;;;;;;;21.02;54.24;102086.09;5028347;28;20040;-70
2021/09/05 10:28:44;;;;;;;8.27;4.07;;;;;;;20.99;54.80;102086.50;5027621;28;20629;-70
2021/09/05 10:31:12;;;;;;;8.15;4.68;;;;;;;21.00;54.95;102083.59;5028318;28;20079;-70
2021/09/05 10:33:42;;;;;;;7.20;4.47;;;;;;;22.53;53.74;102088.72;5028612;28;20095;-70
2021/09/05 10:36:14;;;;;;;7.55;4.60;;;;;;;22.38;52.94;102074.47;5027180;28;20508;-70
2021/09/05 10:38:42;;;;;;;5.78;3.90;;;;;;;20.09;56.54;102078.00;5027589;28;20072;-70
2021/09/05 10:41:08;;;;;;;5.65;4.00;;;;;;;20.34;56.81;102078.44;5027475;28;20111;-70
2021/09/05 10:43:49;;;;;;;7.88;3.75;;;;;;;21.14;56.72;102084.50;5028201;28;20033;-70
2021/09/05 10:46:22;;;;;;;8.82;4.15;;;;;;;22.47;53.76;102092.25;5010386;28;20073;-70
2021/09/05 10:48:52;;;;;;;7.43;3.60;;;;;;;23.35;51.74;102086.50;5027522;28;20029;-70
2021/09/05 10:51:26;;;;;;;8.30;4.07;;;;;;;22.83;50.97;102080.06;5010861;28;20025;-70
2021/09/05 10:54:02;;;;;;;5.85;3.28;;;;;;;23.59;50.08;102083.03;5028202;28;20033;-70
2021/09/05 10:56:44;;;;;;;6.15;4.30;;;;;;;21.50;55.02;102083.44;5026768;28;20240;-70
2021/09/05 10:59:21;;;;;;;7.53;4.80;;;;;;;23.16;52.06;102078.16;5028081;28;20544;-70
2021/09/05 11:01:46;;;;;;;9.45;4.75;;;;;;;22.47;52.18;102067.75;5027756;28;20259;-70
2021/09/05 11:04:12;;;;;;;5.33;3.60;;;;;;;21.57;53.27;102072.63;5027005;28;20494;-70
2021/09/05 11:06:43;;;;;;;5.37;3.70;;;;;;;22.45;53.64;102075.28;5010232;28;20041;-70
2021/09/05 11:09:41;;;;;;;7.32;4.70;;;;;;;23.28;52.25;102075.63;5027187;28;20065;-70
2021/09/05 11:12:07;;;;;;;7.80;3.83;;;;;;;24.35;49.68;102070.41;5027694;28;20060;-71
2021/09/05 11:14:48;;;;;;;7.70;5.03;;;;;;;23.82;50.68;102073.50;5026944;28;20022;-70
2021/09/05 11:17:16;;;;;;;6.63;4.85;;;;;;;22.51;52.14;102066.31;5026451;28;20041;-70
2021/09/05 11:19:44;;;;;;;6.82;4.60;;;;;;;22.80;51.46;102077.78;5027810;28;20022;-70
2021/09/05 11:22:11;;;;;;;;;;;;;;;22.48;53.19;102074.91;5028055;28;20037;-70
2021/09/05 11:24:38;;;;;;;6.47;4.35;;;;;;;22.29;53.30;102071.97;5026708;28;20356;-70
2021/09/05 11:27:09;;;;;;;6.47;4.32;;;;;;;22.40;53.14;102072.38;5025782;28;20059;-71
2021/09/05 11:29:37;;;;;;;6.22;4.38;;;;;;;22.86;52.68;102079.69;5027426;28;20160;-70
2021/09/05 11:32:07;;;;;;;10.15;4.93;;;;;;;21.81;54.94;102082.91;5010126;28;20086;-71
2021/09/05 11:34:34;;;;;;;11.93;4.85;;;;;;;23.51;50.91;102083.28;5027758;28;20021;-71
2021/09/05 11:37:00;;;;;;;7.68;5.05;;;;;;;23.67;51.35;102076.50;5027516;28;20040;-71
2021/09/05 11:39:26;;;;;;;6.13;4.47;;;;;;;23.49;50.69;102077.22;5027487;28;20061;-71
2021/09/05 11:42:01;;;;;;;9.52;5.93;;;;;;;22.10;52.40;102087.19;5026673;28;20514;-70